Time;durP1;ratioP1;P1;durP2;ratioP2;P2;SDS_P1;SDS_P2;PMS_P1;PMS_P2;Temp;Humidity;BMP_temperature;BMP_pressure;BME280_temperature;BME280_humidity;BME280_pressure;Samples;Min_cycle;Max_cycle;Signal;HPM_P1;HPM_P2
2020/12/04 00:01:06;;;;;;;29.80;15.43;;;;;;;-3.81;75.68;98992.66;5082850;28;20073;-74
2020/12/04 00:03:31;;;;;;;30.70;15.03;;;;;;;-3.83;75.58;98991.72;5084793;28;20134;-74
2020/12/04 00:05:57;;;;;;;31.17;15.73;;;;;;;-3.86;76.53;98987.38;5084953;28;20062;-73
2020/12/04 00:08:22;;;;;;;35.83;18.00;;;;;;;-3.86;76.25;98978.75;5081538;28;20119;-74
2020/12/04 00:10:47;;;;;;;31.83;15.17;;;;;;;-3.90;76.05;98982.09;5081450;28;20040;-73
2020/12/04 00:13:13;;;;;;;31.77;16.03;;;;;;;-3.90;75.97;98984.66;5083037;28;20119;-73
2020/12/04 00:15:38;;;;;;;33.60;17.00;;;;;;;-3.93;75.58;98990.63;5084898;28;20174;-73
2020/12/04 00:18:03;;;;;;;32.60;15.80;;;;;;;-3.93;76.15;98974.28;5083782;28;20533;-74
2020/12/04 00:20:29;;;;;;;32.90;16.93;;;;;;;-3.92;75.81;98976.03;5081325;28;20483;-74
2020/12/04 00:22:55;;;;;;;32.57;17.23;;;;;;;-3.93;75.83;98969.13;5080903;28;20045;-74
2020/12/04 00:25:20;;;;;;;36.27;17.40;;;;;;;-3.95;76.11;98965.66;5084535;28;20032;-74
2020/12/04 00:27:45;;;;;;;30.37;15.93;;;;;;;-3.98;75.56;98958.72;5084644;28;20546;-73
2020/12/04 00:30:11;;;;;;;34.40;17.53;;;;;;;-3.99;76.02;98962.97;5082108;28;20078;-73
2020/12/04 00:32:36;;;;;;;31.90;16.37;;;;;;;-4.00;76.26;98961.25;5080861;28;20063;-74
2020/12/04 00:35:02;;;;;;;33.50;16.93;;;;;;;-4.01;76.59;98951.78;5081896;28;20078;-73
2020/12/04 00:37:27;;;;;;;31.40;17.17;;;;;;;-4.02;75.68;98947.44;5084467;28;20051;-73
2020/12/04 00:39:52;;;;;;;33.97;16.67;;;;;;;-4.03;76.27;98947.41;5084326;28;20050;-73
2020/12/04 00:42:18;;;;;;;36.27;17.77;;;;;;;-4.02;76.64;98946.56;5081050;28;20041;-73
2020/12/04 00:44:43;;;;;;;34.93;17.53;;;;;;;-4.04;76.38;98943.94;5080080;28;20024;-73
2020/12/04 00:47:08;;;;;;;33.53;16.37;;;;;;;-4.04;75.99;98946.50;5082536;28;20036;-73
2020/12/04 00:49:34;;;;;;;36.20;18.47;;;;;;;-4.04;76.50;98938.78;5084234;28;20055;-73
2020/12/04 00:52:00;;;;;;;32.37;15.53;;;;;;;-4.04;75.86;98941.34;5082210;28;20631;-73
2020/12/04 00:54:26;;;;;;;34.00;15.30;;;;;;;-4.05;77.00;98938.75;5080464;28;20032;-73
2020/12/04 00:56:51;;;;;;;35.07;17.63;;;;;;;-4.07;76.92;98930.97;5079351;28;20445;-73
2020/12/04 00:59:27;;;;;;;36.43;18.80;;;;;;;-4.07;77.13;98941.28;5079253;28;20036;-74
2020/12/04 01:01:52;;;;;;;30.50;15.43;;;;;;;-4.07;76.48;98923.25;5080456;28;20098;-73
2020/12/04 01:04:18;;;;;;;35.57;18.23;;;;;;;-4.07;76.22;98918.09;5083294;28;20036;-74
2020/12/04 01:06:43;;;;;;;38.33;19.43;;;;;;;-4.08;77.34;98921.50;5088256;28;20073;-73
2020/12/04 01:09:08;;;;;;;35.70;17.77;;;;;;;-4.08;77.07;98918.94;5083335;28;20090;-73
2020/12/04 01:11:34;;;;;;;33.67;17.13;;;;;;;-4.08;77.26;98923.22;5083716;28;20035;-74
2020/12/04 01:14:00;;;;;;;44.60;21.57;;;;;;;-4.09;76.99;98917.16;5083179;28;20032;-73
2020/12/04 01:16:25;;;;;;;37.50;18.30;;;;;;;-4.11;77.56;98913.72;5080270;28;20117;-74
2020/12/04 01:18:50;;;;;;;43.13;21.03;;;;;;;-4.13;77.69;98912.78;5080350;28;20548;-74
2020/12/04 01:21:16;;;;;;;39.73;19.03;;;;;;;-4.12;77.85;98905.94;5080121;28;20375;-74
2020/12/04 01:23:41;;;;;;;41.27;18.37;;;;;;;-4.11;77.62;98898.25;5090838;28;20036;-74
2020/12/04 01:26:07;;;;;;;41.73;21.40;;;;;;;-4.12;77.59;98896.47;5082034;28;20043;-74
2020/12/04 01:28:33;;;;;;;39.37;20.20;;;;;;;-4.13;77.78;98897.31;5079854;28;20479;-73
2020/12/04 01:30:58;;;;;;;40.23;19.90;;;;;;;-4.13;77.96;98894.75;5080372;28;20043;-74
2020/12/04 01:33:23;;;;;;;42.97;22.43;;;;;;;-4.10;78.13;98891.38;5083125;28;20063;-74
2020/12/04 01:35:49;;;;;;;40.03;20.87;;;;;;;-4.09;78.21;98881.09;5083415;28;20058;-74
2020/12/04 01:38:14;;;;;;;41.93;21.43;;;;;;;-4.09;78.15;98875.94;5080270;28;20046;-74
2020/12/04 01:40:40;;;;;;;44.53;21.97;;;;;;;-4.08;78.61;98867.41;5083705;28;20402;-74
2020/12/04 01:43:06;;;;;;;42.70;21.80;;;;;;;-4.07;78.07;98876.88;5080352;28;20066;-74
2020/12/04 01:45:35;;;;;;;46.90;23.17;;;;;;;-4.06;77.96;98873.47;5079792;28;20044;-72
2020/12/04 01:48:01;;;;;;;42.83;21.23;;;;;;;-4.04;78.91;98865.75;5080220;28;20446;-74
2020/12/04 01:50:26;;;;;;;39.20;19.37;;;;;;;-4.03;78.28;98860.66;5083116;28;20115;-74
2020/12/04 01:52:52;;;;;;;46.33;21.10;;;;;;;-4.04;78.50;98853.75;5082943;28;20111;-74
2020/12/04 01:55:17;;;;;;;46.43;22.53;;;;;;;-4.03;78.27;98854.63;5080222;28;20403;-74
2020/12/04 01:57:47;;;;;;;46.07;23.03;;;;;;;-4.04;78.82;98848.59;5079428;28;20392;-74
2020/12/04 02:00:13;;;;;;;44.73;20.97;;;;;;;-4.05;78.88;98840.84;5081693;28;20032;-74
2020/12/04 02:02:42;;;;;;;42.97;21.87;;;;;;;-4.06;79.21;98844.22;5082770;28;20056;-74
2020/12/04 02:05:07;;;;;;;41.63;21.63;;;;;;;-4.08;78.41;98836.47;5081456;28;20040;-74
2020/12/04 02:07:59;;;;;;;45.87;23.23;;;;;;;-4.09;78.95;98833.84;5079521;28;20028;-74
2020/12/04 02:10:38;;;;;;;41.20;21.13;;;;;;;-4.13;78.59;98824.31;5071464;28;20048;-74
2020/12/04 02:13:05;;;;;;;43.53;20.83;;;;;;;-4.11;78.76;98836.41;5080161;28;20502;-74
2020/12/04 02:15:31;;;;;;;36.80;18.90;;;;;;;-4.07;79.09;98827.91;5082954;28;20035;-74
2020/12/04 02:17:57;;;;;;;42.97;21.80;;;;;;;-3.93;78.51;98829.94;5082755;28;20040;-74
2020/12/04 02:20:23;;;;;;;39.03;20.77;;;;;;;-3.78;79.09;98820.88;5079626;28;20025;-74
2020/12/04 02:22:48;;;;;;;39.27;20.07;;;;;;;-3.55;78.47;98818.81;5078822;28;20136;-74
2020/12/04 02:25:14;;;;;;;43.13;21.33;;;;;;;-3.31;78.71;98808.19;5081761;28;20039;-74
2020/12/04 02:27:49;;;;;;;42.37;22.03;;;;;;;-3.08;77.92;98802.63;5082690;28;20043;-73
2020/12/04 02:30:20;;;;;;;41.33;21.47;;;;;;;-2.90;78.21;98800.41;5080141;28;20036;-74
2020/12/04 02:32:45;;;;;;;42.43;22.30;;;;;;;-2.72;78.14;98787.00;5079236;28;20401;-74
2020/12/04 02:35:11;;;;;;;45.33;23.80;;;;;;;-2.54;78.07;98789.06;5081230;28;20040;-74
2020/12/04 02:37:36;;;;;;;41.80;22.80;;;;;;;-2.37;77.30;98783.31;5082610;28;20123;-74
2020/12/04 02:40:02;;;;;;;41.13;22.87;;;;;;;-2.21;77.21;98783.59;5081777;28;20487;-74
2020/12/04 02:42:27;;;;;;;41.53;22.83;;;;;;;-2.01;76.99;98767.53;5078855;28;20040;-74
2020/12/04 02:44:52;;;;;;;44.50;23.17;;;;;;;-1.86;77.07;98767.78;5079124;28;20032;-74
2020/12/04 02:47:17;;;;;;;40.03;22.00;;;;;;;-1.67;77.34;98756.00;5082193;28;20046;-74
2020/12/04 02:49:43;;;;;;;43.30;23.43;;;;;;;-1.52;76.08;98749.28;5082462;28;20130;-74
2020/12/04 02:52:08;;;;;;;44.97;24.37;;;;;;;-1.38;77.38;98753.78;5080575;28;20028;-74
2020/12/04 02:54:33;;;;;;;41.37;23.40;;;;;;;-1.19;76.85;98754.03;5079013;28;20040;-74
2020/12/04 02:56:59;;;;;;;38.40;21.77;;;;;;;-0.99;76.71;98741.34;5079315;28;20134;-74
2020/12/04 02:59:24;;;;;;;40.07;22.40;;;;;;;-0.83;76.18;98737.19;5082787;28;20397;-74
2020/12/04 03:01:49;;;;;;;45.80;25.00;;;;;;;-0.78;76.15;98735.50;5082234;28;20490;-74
2020/12/04 03:04:15;;;;;;;42.50;22.50;;;;;;;-0.72;76.94;98730.38;5079451;28;20051;-74
2020/12/04 03:06:40;;;;;;;38.43;21.07;;;;;;;-0.53;76.97;98732.28;5079546;28;20034;-74
2020/12/04 03:09:06;;;;;;;38.33;22.13;;;;;;;-0.29;76.05;98726.47;5083934;28;20402;-74
2020/12/04 03:11:31;;;;;;;41.23;22.90;;;;;;;-0.20;75.85;98725.69;5085900;28;20043;-74
2020/12/04 03:13:56;;;;;;;35.23;20.40;;;;;;;-0.10;76.38;98727.47;5085699;28;20039;-74
2020/12/04 03:16:22;;;;;;;37.87;20.77;;;;;;;0.09;77.31;98718.09;5082594;28;20123;-74
2020/12/04 03:18:47;;;;;;;36.57;20.33;;;;;;;0.26;77.04;98715.59;5082463;28;20111;-74
2020/12/04 03:21:13;;;;;;;41.80;23.00;;;;;;;0.41;76.67;98720.03;5084508;28;20414;-74
2020/12/04 03:23:38;;;;;;;34.70;20.00;;;;;;;0.54;76.08;98720.97;5085637;28;20490;-74
2020/12/04 03:26:04;;;;;;;34.03;20.27;;;;;;;0.61;76.07;98713.22;5084872;28;20028;-74
2020/12/04 03:28:29;;;;;;;36.17;20.13;;;;;;;0.67;75.42;98701.97;5082446;28;20055;-74
2020/12/04 03:30:54;;;;;;;33.97;19.20;;;;;;;0.73;75.80;98701.13;5082191;28;20040;-74
2020/12/04 03:33:19;;;;;;;36.13;21.43;;;;;;;0.79;75.32;98702.03;5085310;28;20051;-74
2020/12/04 03:35:45;;;;;;;34.37;20.40;;;;;;;0.86;75.11;98701.22;5085535;28;20051;-74
2020/12/04 03:38:10;;;;;;;33.77;19.37;;;;;;;0.94;75.71;98689.94;5083612;28;20031;-74
2020/12/04 03:40:35;;;;;;;33.83;19.83;;;;;;;1.05;74.53;98688.28;5084616;28;20487;-74
2020/12/04 03:43:01;;;;;;;31.43;19.20;;;;;;;1.04;75.23;98697.78;5082374;28;20048;-74
2020/12/04 03:45:26;;;;;;;32.03;19.07;;;;;;;1.12;74.38;98697.78;5085605;28;20032;-74
2020/12/04 03:47:52;;;;;;;28.07;17.27;;;;;;;1.23;74.59;98692.63;5085497;28;20040;-74
2020/12/04 03:50:17;;;;;;;30.07;18.07;;;;;;;1.34;74.34;98698.72;5082416;28;20036;-74
2020/12/04 03:52:42;;;;;;;33.43;19.40;;;;;;;1.33;74.42;98689.16;5081664;28;20035;-74
2020/12/04 03:55:08;;;;;;;31.67;19.03;;;;;;;1.42;73.57;98693.53;5083358;28;20032;-74
2020/12/04 03:57:33;;;;;;;29.67;18.63;;;;;;;1.48;73.40;98688.31;5085299;28;20032;-74
2020/12/04 03:59:58;;;;;;;33.30;20.03;;;;;;;1.51;73.20;98680.53;5084812;28;20375;-74
2020/12/04 04:02:24;;;;;;;29.33;18.70;;;;;;;1.55;73.19;98677.06;5081426;28;20422;-75
2020/12/04 04:04:50;;;;;;;31.93;18.80;;;;;;;1.60;73.12;98672.75;5081596;28;20525;-74
2020/12/04 04:07:15;;;;;;;27.87;17.03;;;;;;;1.61;73.83;98661.47;5084360;28;20426;-74
2020/12/04 04:09:40;;;;;;;33.33;16.93;;;;;;;1.62;73.50;98662.31;5085111;28;20075;-74
2020/12/04 04:12:06;;;;;;;30.23;17.30;;;;;;;1.64;73.46;98663.19;5083689;28;20039;-75
2020/12/04 04:14:31;;;;;;;27.00;17.30;;;;;;;1.67;73.95;98660.59;5081558;28;20058;-74
2020/12/04 04:16:57;;;;;;;28.70;17.67;;;;;;;1.71;72.89;98657.13;5081583;28;20044;-74
2020/12/04 04:19:22;;;;;;;33.40;21.30;;;;;;;1.71;73.55;98654.53;5072176;28;20028;-74
2020/12/04 04:21:47;;;;;;;29.23;19.48;;;;;;;1.74;73.76;98657.97;5078920;28;20695;-74
2020/12/04 04:24:13;;;;;;;31.17;17.97;;;;;;;1.81;73.10;98656.25;5088127;28;20044;-74
2020/12/04 04:26:38;;;;;;;31.52;19.58;;;;;;;1.87;72.98;98651.03;5078001;28;20040;-74
2020/12/04 04:29:03;;;;;;;31.27;18.15;;;;;;;1.90;73.14;98648.44;5088041;28;20092;-74
2020/12/04 04:31:29;;;;;;;26.80;17.27;;;;;;;1.90;72.64;98647.56;5091884;28;20034;-74
2020/12/04 04:33:54;;;;;;;27.30;17.67;;;;;;;1.87;73.07;98644.97;5084473;28;20110;-74
2020/12/04 04:36:19;;;;;;;29.65;18.75;;;;;;;1.84;72.75;98650.19;5081358;28;20047;-74
2020/12/04 04:38:45;;;;;;;29.67;18.55;;;;;;;1.85;72.73;98642.38;5080828;28;20071;-74
2020/12/04 04:41:13;;;;;;;30.33;17.98;;;;;;;1.85;72.75;98639.75;5082803;28;20037;-74
2020/12/04 04:43:39;;;;;;;28.45;18.17;;;;;;;1.83;72.38;98636.28;5084302;28;20555;-74
2020/12/04 04:46:17;;;;;;;28.90;18.02;;;;;;;1.74;72.63;98634.56;5083322;28;20035;-75
2020/12/04 04:48:55;;;;;;;27.05;15.82;;;;;;;1.71;72.21;98637.19;5080958;28;20040;-75
2020/12/04 04:51:22;;;;;;;28.23;16.63;;;;;;;1.65;72.44;98634.59;5083944;28;20090;-75
2020/12/04 04:53:54;;;;;;;28.55;17.58;;;;;;;1.57;72.88;98641.50;5083950;28;20671;-75
2020/12/04 04:56:20;;;;;;;26.80;17.42;;;;;;;1.51;73.19;98636.31;5081019;28;20577;-75
2020/12/04 04:58:45;;;;;;;25.10;15.55;;;;;;;1.40;72.93;98628.53;5080665;28;20154;-75
2020/12/04 05:01:11;;;;;;;25.60;17.30;;;;;;;1.31;73.50;98628.53;5082250;28;20029;-75
2020/12/04 05:03:36;;;;;;;24.37;15.57;;;;;;;1.19;73.82;98631.97;5083797;28;20179;-75
2020/12/04 05:06:01;;;;;;;26.80;16.33;;;;;;;1.12;73.20;98627.63;5081978;28;20601;-75
2020/12/04 05:08:26;;;;;;;23.80;16.03;;;;;;;1.03;74.06;98617.25;5080482;28;20530;-75
2020/12/04 05:11:09;;;;;;;26.40;16.37;;;;;;;0.91;73.80;98612.03;5080396;28;20056;-75
2020/12/04 05:13:34;;;;;;;25.48;16.88;;;;;;;0.83;73.92;98606.81;5073701;28;20040;-75
2020/12/04 05:16:00;;;;;;;32.13;19.97;;;;;;;0.76;74.38;98618.03;5079417;28;20699;-74
2020/12/04 05:18:25;;;;;;;28.97;17.10;;;;;;;0.70;74.73;98612.84;5083843;28;20391;-72
2020/12/04 05:20:53;;;;;;;24.17;15.93;;;;;;;0.67;75.53;98612.84;5067320;28;20048;-72
2020/12/04 05:23:19;;;;;;;25.70;15.70;;;;;;;0.63;75.21;98607.66;5089636;28;20039;-73
2020/12/04 05:25:50;;;;;;;23.43;15.60;;;;;;;0.57;75.52;98612.81;5072687;28;20442;-72
2020/12/04 05:28:18;;;;;;;24.13;15.77;;;;;;;0.53;75.55;98615.41;5068846;28;20040;-73
2020/12/04 05:30:51;;;;;;;23.03;14.93;;;;;;;0.49;75.35;98611.91;5068160;28;20028;-72
2020/12/04 05:33:18;;;;;;;23.83;15.63;;;;;;;0.42;75.50;98611.03;5069432;28;20128;-72
2020/12/04 05:35:51;;;;;;;24.40;14.90;;;;;;;0.38;75.37;98606.69;5079946;28;20036;-73
2020/12/04 05:38:18;;;;;;;;;;;;;;;0.27;76.78;98603.19;5082890;28;20475;-72
2020/12/04 05:40:51;;;;;;;23.77;14.33;;;;;;;0.26;75.80;98604.03;5083255;28;20015;-72
2020/12/04 05:43:31;;;;;;;23.80;14.93;;;;;;;0.20;76.55;98604.03;5078894;28;20041;-72
2020/12/04 05:46:20;;;;;;;23.57;14.10;;;;;;;0.14;76.44;98610.06;5079788;28;20028;-72
2020/12/04 05:49:04;;;;;;;25.63;15.67;;;;;;;0.12;76.76;98608.31;5072497;28;20050;-73
2020/12/04 05:51:32;;;;;;;24.70;15.30;;;;;;;0.09;75.93;98603.97;5072736;28;20422;-72
2020/12/04 05:53:58;;;;;;;25.67;15.57;;;;;;;0.07;77.10;98604.81;5079479;28;20036;-73
2020/12/04 05:56:24;;;;;;;24.40;16.07;;;;;;;0.04;76.97;98604.81;5083131;28;20571;-73
2020/12/04 05:58:53;;;;;;;24.43;14.93;;;;;;;0.01;77.00;98597.03;5082877;28;20034;-73
2020/12/04 06:01:21;;;;;;;25.53;15.90;;;;;;;0.01;76.86;98599.63;5079785;28;20141;-72
2020/12/04 06:03:50;;;;;;;22.63;14.33;;;;;;;-0.01;77.55;98597.00;5079316;28;20044;-73
2020/12/04 06:06:23;;;;;;;28.03;17.57;;;;;;;-0.03;77.23;98609.97;5082222;28;20043;-73
2020/12/04 06:08:48;;;;;;;;;;;;;;;-0.08;78.15;98615.97;5068345;28;20095;-72
2020/12/04 06:11:14;;;;;;;24.90;15.23;;;;;;;-0.06;77.66;98617.72;5087697;28;19931;-73
2020/12/04 06:13:40;;;;;;;23.30;14.67;;;;;;;-0.06;77.86;98609.94;5082773;28;20093;-73
2020/12/04 06:16:13;;;;;;;25.53;15.53;;;;;;;-0.05;77.53;98618.59;5081749;28;20043;-73
2020/12/04 06:18:39;;;;;;;23.73;15.40;;;;;;;-0.03;77.94;98620.34;5079378;28;20043;-73
2020/12/04 06:21:04;;;;;;;27.53;17.30;;;;;;;0.01;77.91;98621.22;5080250;28;20094;-73
2020/12/04 06:23:30;;;;;;;27.80;16.90;;;;;;;0.05;77.84;98620.38;5081429;28;20433;-73
2020/12/04 06:25:57;;;;;;;23.93;15.47;;;;;;;0.09;77.75;98621.28;5079001;28;20405;-73
2020/12/04 06:28:32;;;;;;;26.33;16.53;;;;;;;0.10;77.80;98617.81;5071234;28;20518;-73
2020/12/04 06:31:08;;;;;;;25.37;15.77;;;;;;;0.11;78.25;98619.56;5077139;28;20449;-72
2020/12/04 06:33:42;;;;;;;26.37;16.67;;;;;;;0.13;78.25;98623.00;5071849;28;20033;-73
2020/12/04 06:36:09;;;;;;;25.50;16.23;;;;;;;0.14;77.99;98622.16;5087606;28;20040;-73
2020/12/04 06:38:35;;;;;;;24.27;15.27;;;;;;;0.17;77.59;98624.75;5081388;28;20028;-73
2020/12/04 06:41:30;;;;;;;24.07;15.43;;;;;;;0.16;77.23;98630.81;5086599;28;20036;-73
2020/12/04 06:43:57;;;;;;;22.90;15.30;;;;;;;0.17;77.37;98638.59;5086594;28;20032;-72
2020/12/04 06:46:35;;;;;;;25.13;15.30;;;;;;;0.18;77.66;98639.47;5083196;28;20490;-72
2020/12/04 06:52:02;;;;;;;22.17;14.23;;;;;;;0.20;76.97;98637.75;5086208;28;20032;-72
2020/12/04 06:54:30;;;;;;;22.77;14.43;;;;;;;0.19;77.79;98639.47;5082885;28;20044;-73
2020/12/04 06:56:56;;;;;;;29.60;18.37;;;;;;;0.20;77.34;98632.56;5083345;28;20433;-72
2020/12/04 06:59:23;;;;;;;24.87;16.33;;;;;;;0.23;77.63;98632.56;5086319;28;20031;-72
2020/12/04 07:01:48;;;;;;;24.27;15.93;;;;;;;0.26;77.43;98636.91;5086174;28;20064;-72
2020/12/04 07:04:15;;;;;;;26.80;16.20;;;;;;;0.29;77.58;98634.31;5083652;28;20083;-72
2020/12/04 07:06:40;;;;;;;24.47;15.40;;;;;;;0.35;77.70;98640.41;5082733;28;20036;-73
2020/12/04 07:09:06;;;;;;;24.73;16.37;;;;;;;0.41;77.29;98643.03;5083908;28;20036;-73
2020/12/04 07:11:31;;;;;;;26.53;15.87;;;;;;;0.46;76.97;98631.81;5086065;28;20036;-73
2020/12/04 07:13:57;;;;;;;27.10;17.80;;;;;;;0.52;77.24;98647.41;5085906;28;20036;-73
2020/12/04 07:16:27;;;;;;;24.10;15.67;;;;;;;0.59;77.48;98647.44;5070550;28;20028;-72
2020/12/04 07:18:53;;;;;;;25.23;16.90;;;;;;;0.61;76.81;98652.63;5092107;28;20032;-72
2020/12/04 07:21:20;;;;;;;27.53;15.60;;;;;;;0.67;77.30;98667.38;5078532;28;20036;-72
2020/12/04 07:23:46;;;;;;;26.13;16.33;;;;;;;0.69;76.73;98666.50;5086483;28;20864;-72
2020/12/04 07:26:15;;;;;;;25.70;16.43;;;;;;;0.71;76.63;98672.59;5076126;28;20036;-73
2020/12/04 07:28:40;;;;;;;25.70;17.00;;;;;;;0.71;76.69;98677.78;5087522;28;20039;-72
2020/12/04 07:31:17;;;;;;;24.83;15.70;;;;;;;0.73;76.59;98676.03;5085033;28;20124;-72
2020/12/04 07:33:53;;;;;;;25.17;15.83;;;;;;;0.75;76.60;98679.50;5085625;28;20028;-72
2020/12/04 07:36:19;;;;;;;21.40;14.10;;;;;;;0.76;76.34;98672.56;5082862;28;20082;-72
2020/12/04 07:38:56;;;;;;;25.40;15.17;;;;;;;0.75;76.09;98674.31;5082035;28;20040;-72
2020/12/04 07:41:39;;;;;;;23.10;15.03;;;;;;;0.75;76.19;98678.66;5087285;28;20405;-72
2020/12/04 07:44:10;;;;;;;24.40;14.07;;;;;;;0.78;76.51;98670.84;5084348;28;20039;-72
2020/12/04 07:46:36;;;;;;;23.40;14.13;;;;;;;0.78;76.37;98669.13;5082082;28;20116;-73
2020/12/04 07:49:05;;;;;;;23.67;15.33;;;;;;;0.81;76.82;98669.16;5081391;28;20115;-72
2020/12/04 07:51:32;;;;;;;25.27;16.37;;;;;;;0.83;76.07;98667.41;5085230;28;20044;-72
2020/12/04 07:53:58;;;;;;;24.57;16.37;;;;;;;0.84;76.31;98660.50;5085161;28;20387;-72
2020/12/04 07:56:25;;;;;;;22.93;15.40;;;;;;;0.90;76.67;98657.06;5081882;28;20062;-73
2020/12/04 07:59:01;;;;;;;24.97;16.77;;;;;;;0.96;75.96;98651.88;5081770;28;20040;-73
2020/12/04 08:01:28;;;;;;;26.40;16.73;;;;;;;1.03;76.00;98654.47;5074050;28;20032;-73
2020/12/04 08:03:54;;;;;;;23.23;15.63;;;;;;;1.06;76.38;98648.44;5081649;28;20036;-72
2020/12/04 08:06:29;;;;;;;25.07;16.83;;;;;;;1.11;76.15;98635.44;5084865;28;20052;-72
2020/12/04 08:09:13;;;;;;;22.87;14.97;;;;;;;1.14;75.49;98620.72;5085274;28;20036;-72
2020/12/04 08:11:47;;;;;;;23.67;16.33;;;;;;;1.18;75.65;98618.97;5075461;28;20041;-73
2020/12/04 08:14:15;;;;;;;29.43;17.97;;;;;;;1.25;76.01;98623.31;5083505;28;20028;-72
2020/12/04 08:16:41;;;;;;;33.77;21.30;;;;;;;1.39;76.26;98631.13;5084806;28;20039;-72
2020/12/04 08:19:11;;;;;;;27.93;18.50;;;;;;;1.50;76.04;98627.66;5083404;28;20063;-72
2020/12/04 08:21:54;;;;;;;27.67;18.67;;;;;;;1.60;75.35;98625.94;5081226;28;20110;-72
2020/12/04 08:24:25;;;;;;;29.43;20.27;;;;;;;1.73;75.50;98627.66;5084266;28;20036;-72
2020/12/04 08:27:17;;;;;;;27.03;17.97;;;;;;;1.88;75.33;98625.88;5084842;28;20056;-72
2020/12/04 08:29:46;;;;;;;23.70;16.92;;;;;;;1.99;74.57;98629.31;5074346;28;20050;-72
2020/12/04 08:32:20;;;;;;;22.00;15.38;;;;;;;2.07;74.71;98617.19;5086851;28;20399;-72
2020/12/04 08:34:48;;;;;;;26.17;18.20;;;;;;;2.16;74.57;98611.94;5085505;28;20101;-72
2020/12/04 08:37:14;;;;;;;28.83;18.48;;;;;;;2.28;74.56;98610.16;5083315;28;20467;-72
2020/12/04 08:39:42;;;;;;;26.45;19.17;;;;;;;2.40;74.15;98602.31;5084282;28;20067;-72
2020/12/04 08:42:22;;;;;;;23.17;16.40;;;;;;;2.50;73.63;98598.78;5073058;28;20055;-72
2020/12/04 08:44:55;;;;;;;21.23;14.25;;;;;;;2.69;73.54;98596.09;5083342;28;20042;-72
2020/12/04 08:47:25;;;;;;;20.13;14.50;;;;;;;2.81;72.70;98591.69;5088274;28;20088;-72
2020/12/04 08:49:50;;;;;;;20.60;14.90;;;;;;;2.90;72.67;98595.97;5080589;28;20541;-72
2020/12/04 08:52:52;;;;;;;21.58;15.15;;;;;;;2.99;72.29;98593.31;5083173;28;20028;-72
2020/12/04 08:55:23;;;;;;;22.33;14.88;;;;;;;3.15;71.79;98590.59;5080898;28;20731;-72
2020/12/04 08:57:51;;;;;;;19.30;13.85;;;;;;;3.25;71.72;98589.66;5080707;28;20502;-72
2020/12/04 09:00:20;;;;;;;20.00;13.48;;;;;;;3.32;71.52;98578.28;5083127;28;20032;-72
2020/12/04 09:02:46;;;;;;;17.90;13.23;;;;;;;3.42;71.14;98571.25;5083717;28;20042;-72
2020/12/04 09:05:16;;;;;;;18.10;12.85;;;;;;;3.51;70.68;98577.25;5081542;28;20071;-72
2020/12/04 09:07:42;;;;;;;15.65;11.07;;;;;;;3.59;70.36;98581.53;5080531;28;20049;-72
2020/12/04 09:10:11;;;;;;;17.55;12.60;;;;;;;3.63;70.75;98578.03;5072588;28;20033;-72
2020/12/04 09:12:36;;;;;;;21.40;13.90;;;;;;;3.69;70.18;98583.16;5083092;28;20035;-73
2020/12/04 09:15:03;;;;;;;17.52;12.88;;;;;;;3.81;70.22;98571.75;5090062;28;20433;-72
2020/12/04 09:17:28;;;;;;;17.98;12.30;;;;;;;3.83;69.86;98570.88;5080294;28;20043;-73
2020/12/04 09:19:54;;;;;;;17.27;12.05;;;;;;;3.86;69.75;98569.97;5080089;28;20033;-72
2020/12/04 09:22:20;;;;;;;15.18;11.05;;;;;;;3.89;69.35;98581.22;5082990;28;20043;-72
2020/12/04 09:24:45;;;;;;;15.52;11.43;;;;;;;3.89;68.78;98576.00;5083655;28;20050;-72
2020/12/04 09:27:11;;;;;;;16.98;11.55;;;;;;;3.92;69.32;98569.88;5081784;28;20032;-72
2020/12/04 09:29:37;;;;;;;14.15;10.95;;;;;;;3.91;69.41;98574.25;5079936;28;20407;-72
2020/12/04 09:32:13;;;;;;;16.05;10.95;;;;;;;3.92;68.83;98581.19;5082922;28;20020;-73
2020/12/04 09:34:40;;;;;;;15.23;10.98;;;;;;;3.98;68.81;98587.22;5083443;28;20035;-72
2020/12/04 09:37:20;;;;;;;15.07;11.02;;;;;;;4.05;68.92;98607.16;5082289;28;20040;-72
2020/12/04 09:39:48;;;;;;;17.73;12.80;;;;;;;4.16;69.15;98605.28;5079687;28;20040;-72
2020/12/04 09:42:15;;;;;;;19.15;14.23;;;;;;;4.24;68.44;98603.47;5081642;28;20040;-72
2020/12/04 09:44:42;;;;;;;21.08;15.13;;;;;;;4.35;68.60;98585.94;5083212;28;20526;-72
2020/12/04 09:47:08;;;;;;;14.60;10.35;;;;;;;4.43;67.99;98593.69;5081830;28;20048;-72
2020/12/04 09:49:34;;;;;;;14.70;10.57;;;;;;;4.43;68.16;98592.78;5079740;28;20544;-72
2020/12/04 09:51:59;;;;;;;13.82;9.88;;;;;;;4.42;67.28;98589.31;5079804;28;20028;-72
2020/12/04 09:54:27;;;;;;;14.05;10.80;;;;;;;4.39;67.90;98590.22;5082852;28;20105;-72
2020/12/04 09:56:54;;;;;;;14.32;10.80;;;;;;;4.42;68.01;98584.09;5083502;28;20036;-72
2020/12/04 09:59:21;;;;;;;15.07;10.68;;;;;;;4.44;67.72;98577.13;5076889;28;20471;-72
2020/12/04 10:01:51;;;;;;;14.75;10.80;;;;;;;4.47;67.61;98576.22;5083226;28;20101;-72
2020/12/04 10:04:18;;;;;;;15.00;11.65;;;;;;;4.48;67.65;98575.31;5080591;28;20036;-72
2020/12/04 10:06:43;;;;;;;14.73;10.20;;;;;;;4.49;67.18;98574.44;5070404;28;20040;-72
2020/12/04 10:09:09;;;;;;;14.18;10.45;;;;;;;4.52;67.57;98575.25;5086605;28;20027;-72
2020/12/04 10:11:34;;;;;;;14.13;9.88;;;;;;;4.56;67.18;98568.28;5077477;28;20032;-72
2020/12/04 10:13:59;;;;;;;14.18;10.18;;;;;;;4.64;66.86;98566.41;5077850;28;20055;-72
2020/12/04 10:16:25;;;;;;;14.30;10.45;;;;;;;4.68;66.72;98565.47;5080039;28;20097;-72
2020/12/04 10:18:50;;;;;;;15.20;10.63;;;;;;;4.78;66.51;98574.06;5081097;28;20032;-72
2020/12/04 10:21:15;;;;;;;14.10;10.05;;;;;;;4.88;64.90;98559.13;5079512;28;20044;-72
2020/12/04 10:23:41;;;;;;;12.65;9.35;;;;;;;4.86;65.28;98556.50;5083916;28;20060;-72
2020/12/04 10:26:06;;;;;;;13.88;10.05;;;;;;;4.91;65.91;98565.16;5081104;28;20094;-72
2020/12/04 10:28:32;;;;;;;14.70;10.43;;;;;;;5.00;65.21;98557.19;5083263;28;20055;-72
2020/12/04 10:30:58;;;;;;;14.07;10.32;;;;;;;5.06;65.04;98553.59;5071508;28;20036;-72
2020/12/04 10:33:24;;;;;;;13.93;10.48;;;;;;;5.20;65.18;98551.63;5075480;28;20028;-72
2020/12/04 10:35:49;;;;;;;14.88;10.73;;;;;;;5.41;65.07;98545.16;5085706;28;20425;-72
2020/12/04 10:38:14;;;;;;;14.85;10.45;;;;;;;5.58;64.22;98551.84;5081750;28;20490;-72
2020/12/04 10:40:40;;;;;;;13.80;10.00;;;;;;;5.69;64.24;98552.53;5075307;28;20131;-72
2020/12/04 10:43:05;;;;;;;14.45;9.68;;;;;;;5.87;64.10;98557.44;5088432;28;20035;-72
2020/12/04 10:45:30;;;;;;;17.35;11.40;;;;;;;6.01;63.59;98565.06;5085999;28;20059;-72
2020/12/04 10:47:55;;;;;;;17.17;11.20;;;;;;;6.08;63.57;98568.44;5079244;28;20414;-72
2020/12/04 10:50:21;;;;;;;16.73;12.15;;;;;;;6.02;62.26;98558.06;5082031;28;20494;-72
2020/12/04 10:52:46;;;;;;;16.58;11.23;;;;;;;6.06;63.62;98570.22;5082178;28;20043;-72
2020/12/04 10:55:11;;;;;;;16.63;11.68;;;;;;;5.95;62.56;98561.69;5080533;28;20036;-72
2020/12/04 10:57:37;;;;;;;15.90;11.50;;;;;;;5.88;61.91;98563.53;5079101;28;20040;-72
2020/12/04 11:00:04;;;;;;;14.85;10.85;;;;;;;5.95;62.27;98570.41;5079281;28;20036;-72
2020/12/04 11:02:31;;;;;;;17.65;11.10;;;;;;;5.93;62.36;98564.31;5082067;28;20028;-72
2020/12/04 11:07:41;;;;;;;17.50;11.18;;;;;;;5.65;62.39;98563.94;5076369;28;20051;-72
2020/12/04 11:10:06;;;;;;;16.75;11.52;;;;;;;5.69;62.52;98563.00;5080949;28;20490;-71
2020/12/04 11:12:31;;;;;;;14.73;11.02;;;;;;;5.69;62.83;98566.50;5078629;28;20025;-71
2020/12/04 11:14:57;;;;;;;13.95;10.23;;;;;;;5.73;62.84;98562.06;5080498;28;20510;-71
2020/12/04 11:17:22;;;;;;;15.00;10.93;;;;;;;5.78;62.56;98562.84;5078904;28;20355;-72
2020/12/04 11:19:47;;;;;;;16.25;11.10;;;;;;;5.69;61.75;98566.50;5078707;28;20466;-72
2020/12/04 11:22:14;;;;;;;15.60;11.05;;;;;;;5.75;62.21;98569.88;5077963;28;20494;-72
2020/12/04 11:24:39;;;;;;;17.67;13.18;;;;;;;5.78;62.23;98575.91;5078790;28;20041;-71
2020/12/04 11:27:04;;;;;;;15.18;11.30;;;;;;;5.81;61.98;98577.63;5079673;28;20029;-71
2020/12/04 11:29:30;;;;;;;15.35;11.13;;;;;;;5.90;62.49;98564.38;5085573;28;20068;-72
2020/12/04 11:31:55;;;;;;;16.98;12.25;;;;;;;6.00;61.61;98565.97;5068607;28;20036;-72